sensor_id;sensor_type;location;lat;lon;timestamp;pressure;altitude;pressure_sealevel;temperature;humidity
56689;BME280;42565;53.342;-1.534;2024-02-21T00:02:22;99032.84;;;9.29;72.86
56689;BME280;42565;53.342;-1.534;2024-02-21T00:04:48;99035.06;;;9.89;71.23
56689;BME280;42565;53.342;-1.534;2024-02-21T00:07:15;99038.89;;;10.12;71.61
56689;BME280;42565;53.342;-1.534;2024-02-21T00:09:43;99041.65;;;10.20;71.28
56689;BME280;42565;53.342;-1.534;2024-02-21T00:12:09;99038.88;;;9.91;71.15
56689;BME280;42565;53.342;-1.534;2024-02-21T00:14:36;99021.49;;;10.11;70.43
56689;BME280;42565;53.342;-1.534;2024-02-21T00:17:03;99009.86;;;9.81;72.21
56689;BME280;42565;53.342;-1.534;2024-02-21T00:19:30;98997.21;;;9.65;73.17
56689;BME280;42565;53.342;-1.534;2024-02-21T00:21:57;98994.68;;;9.27;74.35
56689;BME280;42565;53.342;-1.534;2024-02-21T00:24:24;98999.24;;;9.47;74.38
56689;BME280;42565;53.342;-1.534;2024-02-21T00:26:50;98997.79;;;9.12;74.89
56689;BME280;42565;53.342;-1.534;2024-02-21T00:29:17;98992.19;;;9.59;73.23
56689;BME280;42565;53.342;-1.534;2024-02-21T00:31:44;98990.65;;;10.02;72.90
56689;BME280;42565;53.342;-1.534;2024-02-21T00:34:11;98991.28;;;9.89;73.01
56689;BME280;42565;53.342;-1.534;2024-02-21T00:36:38;98993.02;;;9.51;73.86
56689;BME280;42565;53.342;-1.534;2024-02-21T00:39:05;98985.56;;;10.03;72.50
56689;BME280;42565;53.342;-1.534;2024-02-21T00:41:32;98985.12;;;9.77;74.04
56689;BME280;42565;53.342;-1.534;2024-02-21T00:43:59;98981.51;;;9.92;72.11
56689;BME280;42565;53.342;-1.534;2024-02-21T00:46:26;98985.21;;;10.31;71.44
56689;BME280;42565;53.342;-1.534;2024-02-21T00:48:53;98985.54;;;9.63;73.62
56689;BME280;42565;53.342;-1.534;2024-02-21T00:51:19;98992.16;;;9.30;75.17
56689;BME280;42565;53.342;-1.534;2024-02-21T00:53:47;98990.87;;;9.13;74.74
56689;BME280;42565;53.342;-1.534;2024-02-21T00:56:13;98990.59;;;9.52;76.01
56689;BME280;42565;53.342;-1.534;2024-02-21T00:58:41;98982.98;;;9.09;77.13
56689;BME280;42565;53.342;-1.534;2024-02-21T01:01:08;98976.13;;;9.18;76.63
56689;BME280;42565;53.342;-1.534;2024-02-21T01:03:34;98966.44;;;9.07;76.88
56689;BME280;42565;53.342;-1.534;2024-02-21T01:06:01;98948.14;;;9.49;77.04
56689;BME280;42565;53.342;-1.534;2024-02-21T01:08:28;98935.46;;;9.62;78.88
56689;BME280;42565;53.342;-1.534;2024-02-21T01:10:54;98932.23;;;8.86;80.00
56689;BME280;42565;53.342;-1.534;2024-02-21T01:13:22;98929.20;;;9.13;79.40
56689;BME280;42565;53.342;-1.534;2024-02-21T01:15:48;98928.98;;;9.61;78.44
56689;BME280;42565;53.342;-1.534;2024-02-21T01:18:15;98923.08;;;9.86;76.88
56689;BME280;42565;53.342;-1.534;2024-02-21T01:20:42;98916.06;;;9.72;76.44
56689;BME280;42565;53.342;-1.534;2024-02-21T01:23:09;98905.94;;;9.95;76.16
56689;BME280;42565;53.342;-1.534;2024-02-21T01:25:35;98901.19;;;9.43;77.75
56689;BME280;42565;53.342;-1.534;2024-02-21T01:28:03;98897.06;;;8.93;79.66
56689;BME280;42565;53.342;-1.534;2024-02-21T01:30:31;98898.72;;;8.50;84.40
56689;BME280;42565;53.342;-1.534;2024-02-21T01:32:58;98889.28;;;8.44;84.83
56689;BME280;42565;53.342;-1.534;2024-02-21T01:35:25;98887.81;;;8.74;83.94
56689;BME280;42565;53.342;-1.534;2024-02-21T01:37:52;98884.10;;;8.19;86.44
56689;BME280;42565;53.342;-1.534;2024-02-21T01:40:19;98871.89;;;8.08;86.91
56689;BME280;42565;53.342;-1.534;2024-02-21T01:42:47;98852.41;;;8.98;83.85
56689;BME280;42565;53.342;-1.534;2024-02-21T01:45:14;98839.43;;;9.22;82.61
56689;BME280;42565;53.342;-1.534;2024-02-21T01:47:42;98827.55;;;8.33;85.48
56689;BME280;42565;53.342;-1.534;2024-02-21T01:50:10;98817.02;;;9.13;82.87
56689;BME280;42565;53.342;-1.534;2024-02-21T01:52:39;98814.00;;;9.20;80.95
56689;BME280;42565;53.342;-1.534;2024-02-21T01:55:07;98809.60;;;9.38;80.08
56689;BME280;42565;53.342;-1.534;2024-02-21T01:57:36;98810.31;;;8.89;82.06
56689;BME280;42565;53.342;-1.534;2024-02-21T02:00:05;98801.85;;;9.74;79.00
56689;BME280;42565;53.342;-1.534;2024-02-21T02:02:33;98799.15;;;8.98;81.64
56689;BME280;42565;53.342;-1.534;2024-02-21T02:05:01;98795.44;;;9.37;81.68
56689;BME280;42565;53.342;-1.534;2024-02-21T02:07:27;98795.00;;;8.72;83.68
56689;BME280;42565;53.342;-1.534;2024-02-21T02:09:55;98800.87;;;8.55;85.30
56689;BME280;42565;53.342;-1.534;2024-02-21T02:12:23;98796.05;;;8.44;85.59
56689;BME280;42565;53.342;-1.534;2024-02-21T02:14:58;98789.87;;;8.44;85.50
56689;BME280;42565;53.342;-1.534;2024-02-21T02:17:25;98785.59;;;8.46;86.54
56689;BME280;42565;53.342;-1.534;2024-02-21T02:19:52;98783.03;;;8.36;86.70
56689;BME280;42565;53.342;-1.534;2024-02-21T02:22:22;98776.07;;;8.76;85.55
56689;BME280;42565;53.342;-1.534;2024-02-21T02:24:55;98770.21;;;7.90;89.37
56689;BME280;42565;53.342;-1.534;2024-02-21T02:27:22;98763.36;;;7.53;92.28
56689;BME280;42565;53.342;-1.534;2024-02-21T02:29:50;98756.04;;;7.67;93.69
56689;BME280;42565;53.342;-1.534;2024-02-21T02:32:17;98749.80;;;7.07;95.95
56689;BME280;42565;53.342;-1.534;2024-02-21T02:34:44;98747.21;;;7.97;93.95
56689;BME280;42565;53.342;-1.534;2024-02-21T02:37:11;98734.63;;;7.82;92.72
56689;BME280;42565;53.342;-1.534;2024-02-21T02:39:38;98730.13;;;7.44;94.60
56689;BME280;42565;53.342;-1.534;2024-02-21T02:42:05;98726.32;;;7.31;96.04
56689;BME280;42565;53.342;-1.534;2024-02-21T02:44:32;98718.36;;;7.42;94.53
56689;BME280;42565;53.342;-1.534;2024-02-21T02:47:00;98716.48;;;7.18;96.63
56689;BME280;42565;53.342;-1.534;2024-02-21T02:49:26;98715.71;;;7.37;95.95
56689;BME280;42565;53.342;-1.534;2024-02-21T02:51:53;98705.62;;;7.28;96.85
56689;BME280;42565;53.342;-1.534;2024-02-21T02:54:20;98692.92;;;7.26;98.49
56689;BME280;42565;53.342;-1.534;2024-02-21T02:56:47;98680.47;;;6.71;100.00
56689;BME280;42565;53.342;-1.534;2024-02-21T02:59:14;98672.38;;;7.22;99.20
56689;BME280;42565;53.342;-1.534;2024-02-21T03:01:41;98663.48;;;7.18;100.00
56689;BME280;42565;53.342;-1.534;2024-02-21T03:04:09;98654.34;;;7.01;100.00
56689;BME280;42565;53.342;-1.534;2024-02-21T03:06:36;98650.23;;;6.45;100.00
56689;BME280;42565;53.342;-1.534;2024-02-21T03:09:03;98634.37;;;6.62;100.00
56689;BME280;42565;53.342;-1.534;2024-02-21T03:11:30;98632.41;;;6.87;100.00
56689;BME280;42565;53.342;-1.534;2024-02-21T03:13:57;98617.62;;;7.07;100.00
56689;BME280;42565;53.342;-1.534;2024-02-21T03:16:25;98606.01;;;6.77;100.00
56689;BME280;42565;53.342;-1.534;2024-02-21T03:18:51;98605.20;;;6.80;100.00
56689;BME280;42565;53.342;-1.534;2024-02-21T03:21:18;98594.60;;;6.48;100.00
56689;BME280;42565;53.342;-1.534;2024-02-21T03:23:45;98589.62;;;6.35;100.00
56689;BME280;42565;53.342;-1.534;2024-02-21T03:26:12;98590.81;;;5.90;100.00
56689;BME280;42565;53.342;-1.534;2024-02-21T03:28:39;98578.53;;;5.99;100.00
56689;BME280;42565;53.342;-1.534;2024-02-21T03:31:06;98567.67;;;6.82;100.00
56689;BME280;42565;53.342;-1.534;2024-02-21T03:33:33;98561.28;;;6.17;100.00
56689;BME280;42565;53.342;-1.534;2024-02-21T03:36:00;98542.07;;;6.62;100.00
56689;BME280;42565;53.342;-1.534;2024-02-21T03:38:27;98538.25;;;6.65;100.00
56689;BME280;42565;53.342;-1.534;2024-02-21T03:40:54;98527.54;;;6.26;100.00
56689;BME280;42565;53.342;-1.534;2024-02-21T03:43:21;98521.47;;;6.35;100.00
56689;BME280;42565;53.342;-1.534;2024-02-21T03:45:47;98515.33;;;6.24;100.00
56689;BME280;42565;53.342;-1.534;2024-02-21T03:48:15;98508.37;;;5.99;100.00
56689;BME280;42565;53.342;-1.534;2024-02-21T03:50:41;98497.19;;;6.27;100.00
56689;BME280;42565;53.342;-1.534;2024-02-21T03:53:08;98487.19;;;6.02;100.00
56689;BME280;42565;53.342;-1.534;2024-02-21T03:55:35;98489.56;;;5.89;100.00
56689;BME280;42565;53.342;-1.534;2024-02-21T03:58:02;98472.65;;;6.14;100.00
56689;BME280;42565;53.342;-1.534;2024-02-21T04:00:28;98470.16;;;6.26;100.00
56689;BME280;42565;53.342;-1.534;2024-02-21T04:02:55;98466.43;;;5.95;100.00
56689;BME280;42565;53.342;-1.534;2024-02-21T04:05:22;98463.91;;;5.89;100.00
56689;BME280;42565;53.342;-1.534;2024-02-21T04:07:49;98449.39;;;6.08;100.00
56689;BME280;42565;53.342;-1.534;2024-02-21T04:10:16;98441.10;;;6.64;100.00
56689;BME280;42565;53.342;-1.534;2024-02-21T04:12:44;98436.53;;;6.41;100.00
56689;BME280;42565;53.342;-1.534;2024-02-21T04:15:11;98438.03;;;6.57;100.00
56689;BME280;42565;53.342;-1.534;2024-02-21T04:17:38;98431.43;;;5.96;100.00
56689;BME280;42565;53.342;-1.534;2024-02-21T04:20:06;98431.89;;;6.12;100.00
56689;BME280;42565;53.342;-1.534;2024-02-21T04:22:40;98416.20;;;5.96;100.00
56689;BME280;42565;53.342;-1.534;2024-02-21T04:25:07;98417.41;;;6.13;100.00
56689;BME280;42565;53.342;-1.534;2024-02-21T04:27:34;98409.09;;;5.82;100.00
56689;BME280;42565;53.342;-1.534;2024-02-21T04:30:02;98412.69;;;5.67;100.00
56689;BME280;42565;53.342;-1.534;2024-02-21T04:32:29;98404.70;;;5.78;100.00
56689;BME280;42565;53.342;-1.534;2024-02-21T04:34:57;98390.03;;;6.58;100.00
56689;BME280;42565;53.342;-1.534;2024-02-21T04:37:24;98382.90;;;6.00;100.00
56689;BME280;42565;53.342;-1.534;2024-02-21T04:39:50;98380.49;;;5.61;100.00
56689;BME280;42565;53.342;-1.534;2024-02-21T04:42:18;98368.30;;;6.36;100.00
56689;BME280;42565;53.342;-1.534;2024-02-21T04:44:45;98360.57;;;5.85;100.00
56689;BME280;42565;53.342;-1.534;2024-02-21T04:47:12;98347.78;;;6.17;100.00
56689;BME280;42565;53.342;-1.534;2024-02-21T04:49:39;98339.22;;;6.13;100.00
56689;BME280;42565;53.342;-1.534;2024-02-21T04:52:07;98347.68;;;6.13;100.00
56689;BME280;42565;53.342;-1.534;2024-02-21T04:54:34;98349.79;;;5.25;100.00
56689;BME280;42565;53.342;-1.534;2024-02-21T04:57:01;98337.62;;;5.96;100.00
56689;BME280;42565;53.342;-1.534;2024-02-21T04:59:28;98326.70;;;6.41;100.00
56689;BME280;42565;53.342;-1.534;2024-02-21T05:01:56;98309.48;;;6.50;100.00
56689;BME280;42565;53.342;-1.534;2024-02-21T05:04:24;98299.08;;;6.17;100.00
56689;BME280;42565;53.342;-1.534;2024-02-21T05:06:50;98284.74;;;6.46;100.00
56689;BME280;42565;53.342;-1.534;2024-02-21T05:09:17;98281.81;;;6.61;100.00
56689;BME280;42565;53.342;-1.534;2024-02-21T05:11:44;98268.54;;;6.02;100.00
56689;BME280;42565;53.342;-1.534;2024-02-21T05:14:10;98266.87;;;6.16;100.00
56689;BME280;42565;53.342;-1.534;2024-02-21T05:16:38;98272.60;;;5.84;100.00
56689;BME280;42565;53.342;-1.534;2024-02-21T05:19:06;98250.91;;;5.90;100.00
56689;BME280;42565;53.342;-1.534;2024-02-21T05:21:33;98232.47;;;6.00;100.00
56689;BME280;42565;53.342;-1.534;2024-02-21T05:24:00;98225.93;;;6.29;100.00
56689;BME280;42565;53.342;-1.534;2024-02-21T05:26:27;98227.62;;;6.20;100.00
56689;BME280;42565;53.342;-1.534;2024-02-21T05:28:54;98218.11;;;5.92;100.00
56689;BME280;42565;53.342;-1.534;2024-02-21T05:31:21;98207.87;;;6.24;100.00
56689;BME280;42565;53.342;-1.534;2024-02-21T05:33:48;98208.38;;;6.11;100.00
56689;BME280;42565;53.342;-1.534;2024-02-21T05:36:14;98195.47;;;6.09;100.00
56689;BME280;42565;53.342;-1.534;2024-02-21T05:38:41;98185.87;;;5.82;100.00
56689;BME280;42565;53.342;-1.534;2024-02-21T05:41:08;98171.38;;;5.99;100.00
56689;BME280;42565;53.342;-1.534;2024-02-21T05:43:34;98164.09;;;5.76;100.00
56689;BME280;42565;53.342;-1.534;2024-02-21T05:46:01;98166.05;;;6.12;100.00
56689;BME280;42565;53.342;-1.534;2024-02-21T05:48:29;98146.41;;;5.68;100.00
56689;BME280;42565;53.342;-1.534;2024-02-21T05:50:55;98133.61;;;5.77;100.00
56689;BME280;42565;53.342;-1.534;2024-02-21T05:53:22;98130.45;;;6.28;100.00
56689;BME280;42565;53.342;-1.534;2024-02-21T05:55:49;98126.26;;;6.10;100.00
56689;BME280;42565;53.342;-1.534;2024-02-21T05:58:15;98120.69;;;5.86;100.00
56689;BME280;42565;53.342;-1.534;2024-02-21T06:00:42;98128.81;;;5.57;100.00
56689;BME280;42565;53.342;-1.534;2024-02-21T06:03:09;98110.13;;;5.96;100.00
56689;BME280;42565;53.342;-1.534;2024-02-21T06:05:37;98099.38;;;5.22;100.00
56689;BME280;42565;53.342;-1.534;2024-02-21T06:08:05;98096.72;;;5.45;100.00
56689;BME280;42565;53.342;-1.534;2024-02-21T06:10:33;98096.92;;;5.20;100.00
56689;BME280;42565;53.342;-1.534;2024-02-21T06:13:00;98090.05;;;5.49;100.00
56689;BME280;42565;53.342;-1.534;2024-02-21T06:15:27;98090.51;;;5.45;100.00
56689;BME280;42565;53.342;-1.534;2024-02-21T06:17:54;98068.65;;;5.47;100.00
56689;BME280;42565;53.342;-1.534;2024-02-21T06:20:21;98069.59;;;5.22;100.00
56689;BME280;42565;53.342;-1.534;2024-02-21T06:22:48;98058.48;;;5.12;100.00
56689;BME280;42565;53.342;-1.534;2024-02-21T06:25:15;98050.50;;;4.92;100.00
56689;BME280;42565;53.342;-1.534;2024-02-21T06:27:43;98060.00;;;4.93;100.00
56689;BME280;42565;53.342;-1.534;2024-02-21T06:30:11;98055.95;;;5.05;100.00
56689;BME280;42565;53.342;-1.534;2024-02-21T06:32:38;98046.32;;;5.29;100.00
56689;BME280;42565;53.342;-1.534;2024-02-21T06:35:05;98029.31;;;5.55;100.00
56689;BME280;42565;53.342;-1.534;2024-02-21T06:37:33;98037.24;;;5.70;100.00
56689;BME280;42565;53.342;-1.534;2024-02-21T06:40:00;98034.91;;;4.99;100.00
56689;BME280;42565;53.342;-1.534;2024-02-21T06:42:27;98024.42;;;5.07;100.00
56689;BME280;42565;53.342;-1.534;2024-02-21T06:44:53;98018.08;;;4.93;100.00
56689;BME280;42565;53.342;-1.534;2024-02-21T06:47:20;98032.60;;;4.59;100.00
56689;BME280;42565;53.342;-1.534;2024-02-21T06:49:49;97998.31;;;4.35;100.00
56689;BME280;42565;53.342;-1.534;2024-02-21T06:52:17;98009.51;;;4.42;100.00
56689;BME280;42565;53.342;-1.534;2024-02-21T06:54:45;97989.14;;;4.53;100.00
56689;BME280;42565;53.342;-1.534;2024-02-21T06:57:11;97992.50;;;4.49;100.00
56689;BME280;42565;53.342;-1.534;2024-02-21T06:59:39;97983.73;;;4.08;100.00
56689;BME280;42565;53.342;-1.534;2024-02-21T07:02:07;97964.54;;;4.22;100.00
56689;BME280;42565;53.342;-1.534;2024-02-21T07:04:34;97968.89;;;3.68;100.00
56689;BME280;42565;53.342;-1.534;2024-02-21T07:07:02;97943.12;;;4.38;100.00
56689;BME280;42565;53.342;-1.534;2024-02-21T07:09:29;97938.82;;;4.69;100.00
56689;BME280;42565;53.342;-1.534;2024-02-21T07:11:57;97932.15;;;4.95;100.00
56689;BME280;42565;53.342;-1.534;2024-02-21T07:14:25;97948.43;;;4.33;100.00
56689;BME280;42565;53.342;-1.534;2024-02-21T07:16:52;97917.01;;;4.26;100.00
56689;BME280;42565;53.342;-1.534;2024-02-21T07:19:19;97904.25;;;4.17;100.00
56689;BME280;42565;53.342;-1.534;2024-02-21T07:21:46;97911.75;;;4.17;100.00
56689;BME280;42565;53.342;-1.534;2024-02-21T07:24:13;97901.50;;;4.28;100.00
56689;BME280;42565;53.342;-1.534;2024-02-21T07:26:41;97903.10;;;4.08;100.00
56689;BME280;42565;53.342;-1.534;2024-02-21T07:29:08;97894.48;;;4.28;100.00
56689;BME280;42565;53.342;-1.534;2024-02-21T07:31:40;97877.92;;;3.82;100.00
56689;BME280;42565;53.342;-1.534;2024-02-21T07:34:07;97856.92;;;4.46;100.00
56689;BME280;42565;53.342;-1.534;2024-02-21T07:36:34;97867.33;;;4.40;100.00
56689;BME280;42565;53.342;-1.534;2024-02-21T07:39:01;97861.02;;;4.06;100.00
56689;BME280;42565;53.342;-1.534;2024-02-21T07:41:28;97850.23;;;4.21;100.00
56689;BME280;42565;53.342;-1.534;2024-02-21T07:43:55;97847.86;;;3.69;100.00
56689;BME280;42565;53.342;-1.534;2024-02-21T07:46:22;97840.93;;;3.74;100.00
56689;BME280;42565;53.342;-1.534;2024-02-21T07:48:50;97820.31;;;3.60;100.00
56689;BME280;42565;53.342;-1.534;2024-02-21T07:51:18;97827.90;;;4.07;100.00
56689;BME280;42565;53.342;-1.534;2024-02-21T07:53:45;97816.62;;;4.69;100.00
56689;BME280;42565;53.342;-1.534;2024-02-21T07:56:12;97815.39;;;4.40;100.00
56689;BME280;42565;53.342;-1.534;2024-02-21T07:58:39;97811.08;;;4.53;100.00
56689;BME280;42565;53.342;-1.534;2024-02-21T08:01:06;97809.39;;;4.27;100.00
56689;BME280;42565;53.342;-1.534;2024-02-21T08:03:34;97785.14;;;4.19;100.00
56689;BME280;42565;53.342;-1.534;2024-02-21T08:06:01;97775.83;;;4.84;100.00
56689;BME280;42565;53.342;-1.534;2024-02-21T08:08:28;97799.45;;;5.46;100.00
56689;BME280;42565;53.342;-1.534;2024-02-21T08:10:55;97766.75;;;4.66;100.00
56689;BME280;42565;53.342;-1.534;2024-02-21T08:13:22;97780.14;;;4.55;100.00
56689;BME280;42565;53.342;-1.534;2024-02-21T08:15:49;97752.78;;;4.62;100.00
56689;BME280;42565;53.342;-1.534;2024-02-21T08:18:16;97744.28;;;4.81;100.00
56689;BME280;42565;53.342;-1.534;2024-02-21T08:20:43;97741.83;;;3.99;100.00
56689;BME280;42565;53.342;-1.534;2024-02-21T08:23:09;97731.16;;;4.60;100.00
56689;BME280;42565;53.342;-1.534;2024-02-21T08:25:36;97713.27;;;4.59;100.00
56689;BME280;42565;53.342;-1.534;2024-02-21T08:28:04;97718.83;;;4.75;100.00
56689;BME280;42565;53.342;-1.534;2024-02-21T08:30:32;97710.97;;;4.84;100.00
56689;BME280;42565;53.342;-1.534;2024-02-21T08:32:59;97695.23;;;5.24;100.00
56689;BME280;42565;53.342;-1.534;2024-02-21T08:35:26;97691.69;;;5.34;100.00
56689;BME280;42565;53.342;-1.534;2024-02-21T08:37:52;97675.66;;;4.95;100.00
56689;BME280;42565;53.342;-1.534;2024-02-21T08:40:19;97658.61;;;4.57;100.00
56689;BME280;42565;53.342;-1.534;2024-02-21T08:42:46;97655.22;;;5.07;100.00
56689;BME280;42565;53.342;-1.534;2024-02-21T08:45:12;97647.07;;;4.51;100.00
56689;BME280;42565;53.342;-1.534;2024-02-21T08:47:39;97651.19;;;4.88;100.00
56689;BME280;42565;53.342;-1.534;2024-02-21T08:50:08;97642.62;;;5.07;100.00
56689;BME280;42565;53.342;-1.534;2024-02-21T08:52:35;97646.01;;;4.97;100.00
56689;BME280;42565;53.342;-1.534;2024-02-21T08:55:03;97645.16;;;5.03;100.00
56689;BME280;42565;53.342;-1.534;2024-02-21T08:57:31;97619.82;;;4.63;100.00
56689;BME280;42565;53.342;-1.534;2024-02-21T08:59:58;97636.51;;;4.51;100.00
56689;BME280;42565;53.342;-1.534;2024-02-21T09:02:25;97613.80;;;4.76;100.00
56689;BME280;42565;53.342;-1.534;2024-02-21T09:04:51;97604.14;;;4.61;100.00
56689;BME280;42565;53.342;-1.534;2024-02-21T09:07:18;97590.71;;;4.42;100.00
56689;BME280;42565;53.342;-1.534;2024-02-21T09:09:45;97571.89;;;4.87;100.00
56689;BME280;42565;53.342;-1.534;2024-02-21T09:12:11;97569.78;;;5.15;100.00
56689;BME280;42565;53.342;-1.534;2024-02-21T09:14:38;97553.16;;;4.95;100.00
56689;BME280;42565;53.342;-1.534;2024-02-21T09:17:05;97551.79;;;4.36;100.00
56689;BME280;42565;53.342;-1.534;2024-02-21T09:19:33;97541.05;;;4.61;100.00
56689;BME280;42565;53.342;-1.534;2024-02-21T09:22:00;97547.76;;;4.53;100.00
56689;BME280;42565;53.342;-1.534;2024-02-21T09:24:27;97555.83;;;4.62;100.00
56689;BME280;42565;53.342;-1.534;2024-02-21T09:26:53;97520.70;;;4.89;100.00
56689;BME280;42565;53.342;-1.534;2024-02-21T09:29:20;97512.00;;;4.76;100.00
56689;BME280;42565;53.342;-1.534;2024-02-21T09:31:47;97504.39;;;4.99;100.00
56689;BME280;42565;53.342;-1.534;2024-02-21T09:34:13;97495.22;;;5.11;100.00
56689;BME280;42565;53.342;-1.534;2024-02-21T09:36:40;97479.65;;;4.71;100.00
56689;BME280;42565;53.342;-1.534;2024-02-21T09:39:07;97468.33;;;5.04;100.00
56689;BME280;42565;53.342;-1.534;2024-02-21T09:41:36;97461.13;;;4.57;100.00
56689;BME280;42565;53.342;-1.534;2024-02-21T09:44:06;97451.40;;;4.89;100.00
56689;BME280;42565;53.342;-1.534;2024-02-21T09:46:40;97434.95;;;4.78;100.00
56689;BME280;42565;53.342;-1.534;2024-02-21T09:49:23;97432.63;;;5.10;100.00
56689;BME280;42565;53.342;-1.534;2024-02-21T09:51:55;97432.23;;;4.79;100.00
56689;BME280;42565;53.342;-1.534;2024-02-21T09:54:25;97409.74;;;4.97;100.00
56689;BME280;42565;53.342;-1.534;2024-02-21T09:56:53;97409.25;;;4.80;100.00
56689;BME280;42565;53.342;-1.534;2024-02-21T09:59:21;97400.47;;;4.98;100.00
56689;BME280;42565;53.342;-1.534;2024-02-21T10:01:49;97383.19;;;4.93;100.00
56689;BME280;42565;53.342;-1.534;2024-02-21T10:04:15;97377.35;;;5.16;100.00
56689;BME280;42565;53.342;-1.534;2024-02-21T10:06:43;97359.01;;;5.20;100.00
56689;BME280;42565;53.342;-1.534;2024-02-21T10:09:20;97352.30;;;5.71;100.00
56689;BME280;42565;53.342;-1.534;2024-02-21T10:11:47;97347.27;;;5.39;100.00
56689;BME280;42565;53.342;-1.534;2024-02-21T10:14:14;97349.77;;;5.56;100.00
56689;BME280;42565;53.342;-1.534;2024-02-21T10:16:42;97334.36;;;5.02;100.00
56689;BME280;42565;53.342;-1.534;2024-02-21T10:19:16;97329.31;;;4.93;100.00
56689;BME280;42565;53.342;-1.534;2024-02-21T10:21:43;97316.89;;;5.01;100.00
56689;BME280;42565;53.342;-1.534;2024-02-21T10:24:11;97320.67;;;5.21;100.00
56689;BME280;42565;53.342;-1.534;2024-02-21T10:26:38;97301.64;;;5.17;100.00
56689;BME280;42565;53.342;-1.534;2024-02-21T10:29:05;97283.30;;;5.24;100.00
56689;BME280;42565;53.342;-1.534;2024-02-21T10:31:32;97271.93;;;5.77;100.00
56689;BME280;42565;53.342;-1.534;2024-02-21T10:34:00;97270.92;;;5.93;100.00
56689;BME280;42565;53.342;-1.534;2024-02-21T10:36:28;97265.41;;;6.09;100.00
56689;BME280;42565;53.342;-1.534;2024-02-21T10:38:56;97276.45;;;5.61;100.00
56689;BME280;42565;53.342;-1.534;2024-02-21T10:41:24;97259.44;;;4.98;100.00
56689;BME280;42565;53.342;-1.534;2024-02-21T10:43:52;97252.66;;;5.43;100.00
56689;BME280;42565;53.342;-1.534;2024-02-21T10:46:21;97247.43;;;5.41;100.00
56689;BME280;42565;53.342;-1.534;2024-02-21T10:48:54;97245.13;;;5.28;100.00
56689;BME280;42565;53.342;-1.534;2024-02-21T10:51:28;97241.49;;;5.36;100.00
56689;BME280;42565;53.342;-1.534;2024-02-21T10:54:04;97225.79;;;5.23;100.00
56689;BME280;42565;53.342;-1.534;2024-02-21T10:56:38;97217.76;;;5.16;100.00
56689;BME280;42565;53.342;-1.534;2024-02-21T10:59:06;97221.28;;;5.50;100.00
56689;BME280;42565;53.342;-1.534;2024-02-21T11:01:34;97200.56;;;4.85;100.00
56689;BME280;42565;53.342;-1.534;2024-02-21T11:04:03;97205.18;;;5.77;100.00
56689;BME280;42565;53.342;-1.534;2024-02-21T11:06:31;97189.11;;;5.47;100.00
56689;BME280;42565;53.342;-1.534;2024-02-21T11:09:02;97184.25;;;5.66;100.00
56689;BME280;42565;53.342;-1.534;2024-02-21T11:11:29;97177.15;;;5.70;100.00
56689;BME280;42565;53.342;-1.534;2024-02-21T11:14:05;97174.50;;;5.55;100.00
56689;BME280;42565;53.342;-1.534;2024-02-21T11:16:36;97151.57;;;5.57;100.00
56689;BME280;42565;53.342;-1.534;2024-02-21T11:19:05;97156.99;;;5.43;100.00
56689;BME280;42565;53.342;-1.534;2024-02-21T11:21:54;97140.03;;;6.20;100.00
56689;BME280;42565;53.342;-1.534;2024-02-21T11:24:44;97134.06;;;6.23;100.00
56689;BME280;42565;53.342;-1.534;2024-02-21T11:27:12;97128.19;;;6.20;100.00
56689;BME280;42565;53.342;-1.534;2024-02-21T11:29:40;97131.97;;;5.83;100.00
56689;BME280;42565;53.342;-1.534;2024-02-21T11:32:09;97109.29;;;5.95;100.00
56689;BME280;42565;53.342;-1.534;2024-02-21T11:34:37;97098.41;;;5.55;100.00
56689;BME280;42565;53.342;-1.534;2024-02-21T11:37:13;97105.12;;;5.81;100.00
56689;BME280;42565;53.342;-1.534;2024-02-21T11:39:41;97106.69;;;5.84;100.00
56689;BME280;42565;53.342;-1.534;2024-02-21T11:42:09;97109.44;;;5.64;100.00
56689;BME280;42565;53.342;-1.534;2024-02-21T11:44:37;97083.06;;;6.00;100.00
56689;BME280;42565;53.342;-1.534;2024-02-21T11:47:05;97077.09;;;6.05;100.00
56689;BME280;42565;53.342;-1.534;2024-02-21T11:49:38;97069.25;;;6.13;100.00
56689;BME280;42565;53.342;-1.534;2024-02-21T11:52:06;97052.88;;;6.56;100.00
56689;BME280;42565;53.342;-1.534;2024-02-21T11:54:34;97042.30;;;6.20;100.00
56689;BME280;42565;53.342;-1.534;2024-02-21T11:57:01;97039.62;;;6.78;100.00
56689;BME280;42565;53.342;-1.534;2024-02-21T11:59:30;97050.16;;;7.03;100.00
56689;BME280;42565;53.342;-1.534;2024-02-21T12:01:59;97030.21;;;6.51;100.00
56689;BME280;42565;53.342;-1.534;2024-02-21T12:04:26;97024.70;;;6.70;100.00
56689;BME280;42565;53.342;-1.534;2024-02-21T12:06:54;97005.65;;;6.31;100.00
56689;BME280;42565;53.342;-1.534;2024-02-21T12:09:22;96996.76;;;6.24;100.00
56689;BME280;42565;53.342;-1.534;2024-02-21T12:11:58;96977.61;;;6.32;100.00
56689;BME280;42565;53.342;-1.534;2024-02-21T12:14:26;96983.60;;;6.53;100.00
56689;BME280;42565;53.342;-1.534;2024-02-21T12:16:53;96957.32;;;6.64;100.00
56689;BME280;42565;53.342;-1.534;2024-02-21T12:19:21;96941.64;;;6.29;100.00
56689;BME280;42565;53.342;-1.534;2024-02-21T12:21:49;96934.00;;;6.74;100.00
56689;BME280;42565;53.342;-1.534;2024-02-21T12:24:20;96925.69;;;6.61;100.00
56689;BME280;42565;53.342;-1.534;2024-02-21T12:26:47;96903.02;;;6.54;100.00
56689;BME280;42565;53.342;-1.534;2024-02-21T12:29:14;96900.67;;;6.52;100.00
56689;BME280;42565;53.342;-1.534;2024-02-21T12:31:42;96898.78;;;5.88;100.00
56689;BME280;42565;53.342;-1.534;2024-02-21T12:34:09;96899.95;;;6.82;100.00
56689;BME280;42565;53.342;-1.534;2024-02-21T12:36:40;96871.04;;;5.87;100.00
56689;BME280;42565;53.342;-1.534;2024-02-21T12:39:08;96852.68;;;6.04;100.00
56689;BME280;42565;53.342;-1.534;2024-02-21T12:41:35;96846.13;;;6.07;100.00
56689;BME280;42565;53.342;-1.534;2024-02-21T12:44:02;96842.81;;;6.60;100.00
56689;BME280;42565;53.342;-1.534;2024-02-21T12:46:30;96845.66;;;6.36;100.00
56689;BME280;42565;53.342;-1.534;2024-02-21T12:48:56;96842.85;;;6.73;100.00
56689;BME280;42565;53.342;-1.534;2024-02-21T12:51:23;96834.25;;;6.80;100.00
56689;BME280;42565;53.342;-1.534;2024-02-21T12:53:50;96825.34;;;7.26;100.00
56689;BME280;42565;53.342;-1.534;2024-02-21T12:56:17;96833.14;;;6.95;100.00